sensor_id;sensor_type;location;lat;lon;timestamp;P1;durP1;ratioP1;P2;durP2;ratioP2
12110;SDS011;6119;52.372;8.990;2023-07-29T00:00:02;2.17;;;2.00;;
12110;SDS011;6119;52.372;8.990;2023-07-29T00:02:49;2.97;;;2.07;;
12110;SDS011;6119;52.372;8.990;2023-07-29T00:05:38;3.53;;;2.30;;
12110;SDS011;6119;52.372;8.990;2023-07-29T00:08:25;2.27;;;2.17;;
12110;SDS011;6119;52.372;8.990;2023-07-29T00:11:13;2.70;;;1.77;;
12110;SDS011;6119;52.372;8.990;2023-07-29T00:14:00;2.83;;;1.90;;
12110;SDS011;6119;52.372;8.990;2023-07-29T00:16:47;2.33;;;2.13;;
12110;SDS011;6119;52.372;8.990;2023-07-29T00:19:34;2.40;;;2.20;;
12110;SDS011;6119;52.372;8.990;2023-07-29T00:22:21;4.03;;;2.23;;
12110;SDS011;6119;52.372;8.990;2023-07-29T00:25:08;2.50;;;2.30;;
12110;SDS011;6119;52.372;8.990;2023-07-29T00:27:55;2.47;;;2.27;;
12110;SDS011;6119;52.372;8.990;2023-07-29T00:30:43;4.13;;;2.37;;
12110;SDS011;6119;52.372;8.990;2023-07-29T00:33:29;2.30;;;2.10;;
12110;SDS011;6119;52.372;8.990;2023-07-29T00:36:16;2.60;;;2.40;;
12110;SDS011;6119;52.372;8.990;2023-07-29T00:39:04;2.90;;;2.57;;
12110;SDS011;6119;52.372;8.990;2023-07-29T00:41:50;2.47;;;2.27;;
12110;SDS011;6119;52.372;8.990;2023-07-29T00:44:37;2.40;;;2.20;;
12110;SDS011;6119;52.372;8.990;2023-07-29T00:47:23;3.23;;;2.60;;
12110;SDS011;6119;52.372;8.990;2023-07-29T00:50:12;3.33;;;2.40;;
12110;SDS011;6119;52.372;8.990;2023-07-29T00:53:00;2.50;;;2.30;;
12110;SDS011;6119;52.372;8.990;2023-07-29T00:55:48;3.20;;;2.83;;
12110;SDS011;6119;52.372;8.990;2023-07-29T00:58:35;3.10;;;2.60;;
12110;SDS011;6119;52.372;8.990;2023-07-29T01:01:22;3.37;;;2.40;;
12110;SDS011;6119;52.372;8.990;2023-07-29T01:04:09;4.03;;;2.20;;
12110;SDS011;6119;52.372;8.990;2023-07-29T01:06:58;4.07;;;2.60;;
12110;SDS011;6119;52.372;8.990;2023-07-29T01:09:55;4.63;;;2.53;;
12110;SDS011;6119;52.372;8.990;2023-07-29T01:12:49;5.20;;;2.70;;
12110;SDS011;6119;52.372;8.990;2023-07-29T01:15:41;5.53;;;2.20;;
12110;SDS011;6119;52.372;8.990;2023-07-29T01:18:32;2.17;;;1.93;;
12110;SDS011;6119;52.372;8.990;2023-07-29T01:21:24;2.40;;;2.20;;
12110;SDS011;6119;52.372;8.990;2023-07-29T01:24:15;2.90;;;2.70;;
12110;SDS011;6119;52.372;8.990;2023-07-29T01:27:02;4.23;;;2.23;;
12110;SDS011;6119;52.372;8.990;2023-07-29T01:29:50;2.47;;;2.27;;
12110;SDS011;6119;52.372;8.990;2023-07-29T01:32:38;2.40;;;2.20;;
12110;SDS011;6119;52.372;8.990;2023-07-29T01:35:31;2.70;;;2.07;;
12110;SDS011;6119;52.372;8.990;2023-07-29T01:38:22;2.90;;;2.10;;
12110;SDS011;6119;52.372;8.990;2023-07-29T01:41:19;2.40;;;2.20;;
12110;SDS011;6119;52.372;8.990;2023-07-29T01:44:07;3.27;;;2.37;;
12110;SDS011;6119;52.372;8.990;2023-07-29T01:46:55;2.20;;;2.00;;
12110;SDS011;6119;52.372;8.990;2023-07-29T01:49:42;2.80;;;2.57;;
12110;SDS011;6119;52.372;8.990;2023-07-29T01:52:28;2.60;;;2.40;;
12110;SDS011;6119;52.372;8.990;2023-07-29T01:55:15;3.23;;;2.40;;
12110;SDS011;6119;52.372;8.990;2023-07-29T01:58:03;3.13;;;2.73;;
12110;SDS011;6119;52.372;8.990;2023-07-29T02:00:50;3.60;;;2.70;;
12110;SDS011;6119;52.372;8.990;2023-07-29T02:03:37;2.70;;;2.50;;
12110;SDS011;6119;52.372;8.990;2023-07-29T02:06:24;3.07;;;2.50;;
12110;SDS011;6119;52.372;8.990;2023-07-29T02:09:11;2.90;;;2.60;;
12110;SDS011;6119;52.372;8.990;2023-07-29T02:11:58;2.53;;;2.33;;
12110;SDS011;6119;52.372;8.990;2023-07-29T02:14:46;2.97;;;2.77;;
12110;SDS011;6119;52.372;8.990;2023-07-29T02:17:33;2.93;;;2.63;;
12110;SDS011;6119;52.372;8.990;2023-07-29T02:20:20;2.60;;;2.40;;
12110;SDS011;6119;52.372;8.990;2023-07-29T02:23:06;3.40;;;2.30;;
12110;SDS011;6119;52.372;8.990;2023-07-29T02:25:53;2.57;;;2.37;;
12110;SDS011;6119;52.372;8.990;2023-07-29T02:28:39;6.13;;;2.47;;
12110;SDS011;6119;52.372;8.990;2023-07-29T02:31:27;2.43;;;2.23;;
12110;SDS011;6119;52.372;8.990;2023-07-29T02:34:14;2.97;;;2.23;;
12110;SDS011;6119;52.372;8.990;2023-07-29T02:37:00;2.40;;;2.20;;
12110;SDS011;6119;52.372;8.990;2023-07-29T02:39:47;3.30;;;2.40;;
12110;SDS011;6119;52.372;8.990;2023-07-29T02:42:34;2.70;;;1.90;;
12110;SDS011;6119;52.372;8.990;2023-07-29T02:45:21;2.77;;;1.87;;
12110;SDS011;6119;52.372;8.990;2023-07-29T02:48:09;2.40;;;2.20;;
12110;SDS011;6119;52.372;8.990;2023-07-29T02:50:55;3.03;;;2.33;;
12110;SDS011;6119;52.372;8.990;2023-07-29T02:53:42;4.33;;;1.93;;
12110;SDS011;6119;52.372;8.990;2023-07-29T02:56:28;2.27;;;2.00;;
12110;SDS011;6119;52.372;8.990;2023-07-29T02:59:16;3.23;;;2.30;;
12110;SDS011;6119;52.372;8.990;2023-07-29T03:02:03;5.20;;;2.20;;
12110;SDS011;6119;52.372;8.990;2023-07-29T03:04:51;2.80;;;2.00;;
12110;SDS011;6119;52.372;8.990;2023-07-29T03:07:38;2.60;;;2.40;;
12110;SDS011;6119;52.372;8.990;2023-07-29T03:10:24;5.90;;;2.90;;
12110;SDS011;6119;52.372;8.990;2023-07-29T03:13:11;2.60;;;2.40;;
12110;SDS011;6119;52.372;8.990;2023-07-29T03:16:04;3.30;;;3.00;;
12110;SDS011;6119;52.372;8.990;2023-07-29T03:18:51;3.13;;;2.83;;
12110;SDS011;6119;52.372;8.990;2023-07-29T03:21:39;3.10;;;2.80;;
12110;SDS011;6119;52.372;8.990;2023-07-29T03:24:26;3.00;;;2.70;;
12110;SDS011;6119;52.372;8.990;2023-07-29T03:27:13;5.13;;;3.33;;
12110;SDS011;6119;52.372;8.990;2023-07-29T03:30:01;3.27;;;2.97;;
12110;SDS011;6119;52.372;8.990;2023-07-29T03:32:48;2.80;;;2.60;;
12110;SDS011;6119;52.372;8.990;2023-07-29T03:35:35;3.50;;;2.43;;
12110;SDS011;6119;52.372;8.990;2023-07-29T03:38:23;2.40;;;2.20;;
12110;SDS011;6119;52.372;8.990;2023-07-29T03:41:10;2.33;;;2.13;;
12110;SDS011;6119;52.372;8.990;2023-07-29T03:43:57;2.50;;;2.30;;
12110;SDS011;6119;52.372;8.990;2023-07-29T03:46:43;2.43;;;2.23;;
12110;SDS011;6119;52.372;8.990;2023-07-29T03:49:30;1.93;;;1.83;;
12110;SDS011;6119;52.372;8.990;2023-07-29T03:52:17;1.73;;;1.63;;
12110;SDS011;6119;52.372;8.990;2023-07-29T03:55:05;2.33;;;2.00;;
12110;SDS011;6119;52.372;8.990;2023-07-29T03:57:52;1.90;;;1.80;;
12110;SDS011;6119;52.372;8.990;2023-07-29T04:00:39;3.67;;;2.30;;
12110;SDS011;6119;52.372;8.990;2023-07-29T04:03:26;3.00;;;2.70;;
12110;SDS011;6119;52.372;8.990;2023-07-29T04:06:12;4.60;;;2.70;;
12110;SDS011;6119;52.372;8.990;2023-07-29T04:08:59;2.63;;;2.43;;
12110;SDS011;6119;52.372;8.990;2023-07-29T04:11:47;2.70;;;2.50;;
12110;SDS011;6119;52.372;8.990;2023-07-29T04:14:35;2.97;;;2.77;;
12110;SDS011;6119;52.372;8.990;2023-07-29T04:17:22;3.07;;;2.70;;
12110;SDS011;6119;52.372;8.990;2023-07-29T04:20:09;3.07;;;2.77;;
12110;SDS011;6119;52.372;8.990;2023-07-29T04:22:56;3.13;;;2.93;;
12110;SDS011;6119;52.372;8.990;2023-07-29T04:25:43;4.13;;;2.43;;
12110;SDS011;6119;52.372;8.990;2023-07-29T04:28:31;4.20;;;3.03;;
12110;SDS011;6119;52.372;8.990;2023-07-29T04:31:18;3.57;;;3.27;;
12110;SDS011;6119;52.372;8.990;2023-07-29T04:34:05;5.07;;;2.93;;
12110;SDS011;6119;52.372;8.990;2023-07-29T04:36:51;3.27;;;2.97;;
12110;SDS011;6119;52.372;8.990;2023-07-29T04:39:38;3.57;;;2.90;;
12110;SDS011;6119;52.372;8.990;2023-07-29T04:42:25;4.20;;;2.90;;
12110;SDS011;6119;52.372;8.990;2023-07-29T04:45:13;3.77;;;3.03;;
12110;SDS011;6119;52.372;8.990;2023-07-29T04:48:01;3.67;;;3.37;;
12110;SDS011;6119;52.372;8.990;2023-07-29T04:50:47;2.70;;;2.50;;
12110;SDS011;6119;52.372;8.990;2023-07-29T04:53:34;3.03;;;2.80;;
12110;SDS011;6119;52.372;8.990;2023-07-29T04:56:21;3.20;;;2.70;;
12110;SDS011;6119;52.372;8.990;2023-07-29T04:59:08;3.10;;;2.73;;
12110;SDS011;6119;52.372;8.990;2023-07-29T05:01:59;5.57;;;2.80;;
12110;SDS011;6119;52.372;8.990;2023-07-29T05:04:46;3.00;;;2.80;;
12110;SDS011;6119;52.372;8.990;2023-07-29T05:07:35;6.37;;;3.33;;
12110;SDS011;6119;52.372;8.990;2023-07-29T05:10:22;3.57;;;3.27;;
12110;SDS011;6119;52.372;8.990;2023-07-29T05:13:08;3.50;;;3.20;;
12110;SDS011;6119;52.372;8.990;2023-07-29T05:15:55;2.97;;;2.63;;
12110;SDS011;6119;52.372;8.990;2023-07-29T05:18:43;3.00;;;2.80;;
12110;SDS011;6119;52.372;8.990;2023-07-29T05:21:30;4.63;;;2.90;;
12110;SDS011;6119;52.372;8.990;2023-07-29T05:24:17;3.20;;;2.90;;
12110;SDS011;6119;52.372;8.990;2023-07-29T05:27:04;2.63;;;2.43;;
12110;SDS011;6119;52.372;8.990;2023-07-29T05:29:51;3.37;;;3.07;;
12110;SDS011;6119;52.372;8.990;2023-07-29T05:32:37;3.23;;;2.93;;
12110;SDS011;6119;52.372;8.990;2023-07-29T05:35:25;2.87;;;2.67;;
12110;SDS011;6119;52.372;8.990;2023-07-29T05:38:12;2.40;;;2.20;;
12110;SDS011;6119;52.372;8.990;2023-07-29T05:40:58;2.50;;;2.30;;
12110;SDS011;6119;52.372;8.990;2023-07-29T05:43:45;3.57;;;2.60;;
12110;SDS011;6119;52.372;8.990;2023-07-29T05:46:32;4.30;;;2.53;;
12110;SDS011;6119;52.372;8.990;2023-07-29T05:49:19;2.80;;;2.60;;
12110;SDS011;6119;52.372;8.990;2023-07-29T05:52:08;2.70;;;2.50;;
12110;SDS011;6119;52.372;8.990;2023-07-29T05:54:54;2.57;;;2.37;;
12110;SDS011;6119;52.372;8.990;2023-07-29T05:57:41;2.47;;;2.27;;
12110;SDS011;6119;52.372;8.990;2023-07-29T06:00:28;2.60;;;2.40;;
12110;SDS011;6119;52.372;8.990;2023-07-29T06:03:15;4.67;;;2.40;;
12110;SDS011;6119;52.372;8.990;2023-07-29T06:06:02;2.37;;;2.17;;
12110;SDS011;6119;52.372;8.990;2023-07-29T06:08:51;2.27;;;2.00;;
12110;SDS011;6119;52.372;8.990;2023-07-29T06:11:38;2.40;;;2.20;;
12110;SDS011;6119;52.372;8.990;2023-07-29T06:14:24;4.80;;;2.50;;
12110;SDS011;6119;52.372;8.990;2023-07-29T06:17:11;2.30;;;2.00;;
12110;SDS011;6119;52.372;8.990;2023-07-29T06:19:57;2.53;;;2.33;;
12110;SDS011;6119;52.372;8.990;2023-07-29T06:22:44;2.03;;;1.90;;
12110;SDS011;6119;52.372;8.990;2023-07-29T06:25:32;2.00;;;1.90;;
12110;SDS011;6119;52.372;8.990;2023-07-29T06:28:19;2.83;;;2.20;;
12110;SDS011;6119;52.372;8.990;2023-07-29T06:31:05;2.10;;;2.00;;
12110;SDS011;6119;52.372;8.990;2023-07-29T06:33:52;2.10;;;1.97;;
12110;SDS011;6119;52.372;8.990;2023-07-29T06:36:40;3.47;;;2.37;;
12110;SDS011;6119;52.372;8.990;2023-07-29T06:39:26;3.40;;;2.13;;
12110;SDS011;6119;52.372;8.990;2023-07-29T06:42:14;2.40;;;2.20;;
12110;SDS011;6119;52.372;8.990;2023-07-29T06:45:01;2.10;;;2.00;;
12110;SDS011;6119;52.372;8.990;2023-07-29T06:47:48;2.40;;;2.07;;
12110;SDS011;6119;52.372;8.990;2023-07-29T06:50:34;2.57;;;2.30;;
12110;SDS011;6119;52.372;8.990;2023-07-29T06:53:21;2.73;;;2.20;;
12110;SDS011;6119;52.372;8.990;2023-07-29T06:56:07;2.43;;;2.27;;
12110;SDS011;6119;52.372;8.990;2023-07-29T06:58:55;2.27;;;2.10;;
12110;SDS011;6119;52.372;8.990;2023-07-29T07:01:42;2.30;;;2.10;;
12110;SDS011;6119;52.372;8.990;2023-07-29T07:04:29;2.30;;;2.17;;
12110;SDS011;6119;52.372;8.990;2023-07-29T07:07:16;2.70;;;2.50;;
12110;SDS011;6119;52.372;8.990;2023-07-29T07:10:03;2.40;;;2.20;;
12110;SDS011;6119;52.372;8.990;2023-07-29T07:12:50;4.70;;;2.20;;
12110;SDS011;6119;52.372;8.990;2023-07-29T07:15:38;2.67;;;2.43;;
12110;SDS011;6119;52.372;8.990;2023-07-29T07:18:25;2.47;;;2.27;;
12110;SDS011;6119;52.372;8.990;2023-07-29T07:21:12;2.23;;;2.03;;
12110;SDS011;6119;52.372;8.990;2023-07-29T07:23:59;3.43;;;2.33;;
12110;SDS011;6119;52.372;8.990;2023-07-29T07:26:45;3.63;;;2.33;;
12110;SDS011;6119;52.372;8.990;2023-07-29T07:29:32;2.43;;;2.23;;
12110;SDS011;6119;52.372;8.990;2023-07-29T07:32:20;2.93;;;2.40;;
12110;SDS011;6119;52.372;8.990;2023-07-29T07:35:07;3.90;;;2.13;;
12110;SDS011;6119;52.372;8.990;2023-07-29T07:37:54;4.57;;;2.83;;
12110;SDS011;6119;52.372;8.990;2023-07-29T07:40:41;3.10;;;2.50;;
12110;SDS011;6119;52.372;8.990;2023-07-29T07:43:27;3.40;;;2.80;;
12110;SDS011;6119;52.372;8.990;2023-07-29T07:46:14;3.13;;;2.67;;
12110;SDS011;6119;52.372;8.990;2023-07-29T07:49:03;3.83;;;2.57;;
12110;SDS011;6119;52.372;8.990;2023-07-29T07:51:50;2.67;;;2.40;;
12110;SDS011;6119;52.372;8.990;2023-07-29T07:54:36;2.63;;;2.43;;
12110;SDS011;6119;52.372;8.990;2023-07-29T07:57:23;3.80;;;3.00;;
12110;SDS011;6119;52.372;8.990;2023-07-29T08:00:10;3.17;;;2.87;;
12110;SDS011;6119;52.372;8.990;2023-07-29T08:02:57;4.57;;;3.60;;
12110;SDS011;6119;52.372;8.990;2023-07-29T08:05:45;5.03;;;4.43;;
12110;SDS011;6119;52.372;8.990;2023-07-29T08:08:32;6.57;;;5.97;;
12110;SDS011;6119;52.372;8.990;2023-07-29T08:11:19;7.90;;;7.10;;
12110;SDS011;6119;52.372;8.990;2023-07-29T08:14:06;9.50;;;7.03;;
12110;SDS011;6119;52.372;8.990;2023-07-29T08:16:52;9.27;;;7.50;;
12110;SDS011;6119;52.372;8.990;2023-07-29T08:19:39;9.43;;;7.80;;
12110;SDS011;6119;52.372;8.990;2023-07-29T08:22:27;9.03;;;7.60;;
12110;SDS011;6119;52.372;8.990;2023-07-29T08:25:14;10.57;;;8.53;;
12110;SDS011;6119;52.372;8.990;2023-07-29T08:28:01;11.43;;;9.03;;
12110;SDS011;6119;52.372;8.990;2023-07-29T08:30:48;9.37;;;6.07;;
12110;SDS011;6119;52.372;8.990;2023-07-29T08:33:34;9.33;;;5.90;;
12110;SDS011;6119;52.372;8.990;2023-07-29T08:36:21;7.93;;;5.33;;
12110;SDS011;6119;52.372;8.990;2023-07-29T08:39:09;5.67;;;5.00;;
12110;SDS011;6119;52.372;8.990;2023-07-29T08:41:57;5.67;;;5.17;;
12110;SDS011;6119;52.372;8.990;2023-07-29T08:44:49;11.17;;;6.47;;
12110;SDS011;6119;52.372;8.990;2023-07-29T08:47:37;7.10;;;6.40;;
12110;SDS011;6119;52.372;8.990;2023-07-29T08:50:24;12.17;;;6.87;;
12110;SDS011;6119;52.372;8.990;2023-07-29T08:53:11;7.10;;;6.40;;
12110;SDS011;6119;52.372;8.990;2023-07-29T08:56:00;8.33;;;6.37;;
12110;SDS011;6119;52.372;8.990;2023-07-29T08:58:47;9.77;;;7.63;;
12110;SDS011;6119;52.372;8.990;2023-07-29T09:01:34;8.20;;;7.30;;
12110;SDS011;6119;52.372;8.990;2023-07-29T09:04:21;8.33;;;7.53;;
12110;SDS011;6119;52.372;8.990;2023-07-29T09:07:08;7.57;;;6.87;;
12110;SDS011;6119;52.372;8.990;2023-07-29T09:09:56;9.20;;;7.37;;
12110;SDS011;6119;52.372;8.990;2023-07-29T09:12:44;7.10;;;6.13;;
12110;SDS011;6119;52.372;8.990;2023-07-29T09:15:31;8.50;;;5.90;;
12110;SDS011;6119;52.372;8.990;2023-07-29T09:18:20;7.87;;;5.83;;
12110;SDS011;6119;52.372;8.990;2023-07-29T09:21:07;8.00;;;6.23;;
12110;SDS011;6119;52.372;8.990;2023-07-29T09:23:55;4.00;;;3.70;;
12110;SDS011;6119;52.372;8.990;2023-07-29T09:26:48;4.03;;;3.73;;
12110;SDS011;6119;52.372;8.990;2023-07-29T09:29:36;3.67;;;3.37;;
12110;SDS011;6119;52.372;8.990;2023-07-29T09:32:24;5.90;;;3.70;;
12110;SDS011;6119;52.372;8.990;2023-07-29T09:35:11;3.90;;;3.50;;
12110;SDS011;6119;52.372;8.990;2023-07-29T09:37:58;4.23;;;3.83;;
12110;SDS011;6119;52.372;8.990;2023-07-29T09:40:45;3.80;;;3.13;;
12110;SDS011;6119;52.372;8.990;2023-07-29T09:43:33;3.53;;;3.23;;
12110;SDS011;6119;52.372;8.990;2023-07-29T09:46:22;4.23;;;3.50;;
12110;SDS011;6119;52.372;8.990;2023-07-29T09:49:11;3.77;;;3.43;;
12110;SDS011;6119;52.372;8.990;2023-07-29T09:51:58;3.87;;;3.00;;
12110;SDS011;6119;52.372;8.990;2023-07-29T09:54:47;3.33;;;3.00;;
12110;SDS011;6119;52.372;8.990;2023-07-29T09:57:35;3.30;;;3.00;;
12110;SDS011;6119;52.372;8.990;2023-07-29T10:00:24;4.80;;;2.50;;
12110;SDS011;6119;52.372;8.990;2023-07-29T10:03:13;3.33;;;2.60;;
12110;SDS011;6119;52.372;8.990;2023-07-29T10:06:02;2.97;;;2.77;;
12110;SDS011;6119;52.372;8.990;2023-07-29T10:08:49;2.63;;;2.43;;
12110;SDS011;6119;52.372;8.990;2023-07-29T10:11:37;2.50;;;2.30;;
12110;SDS011;6119;52.372;8.990;2023-07-29T10:14:24;2.40;;;2.10;;
12110;SDS011;6119;52.372;8.990;2023-07-29T10:17:14;2.07;;;1.87;;
12110;SDS011;6119;52.372;8.990;2023-07-29T10:20:05;1.50;;;1.40;;
12110;SDS011;6119;52.372;8.990;2023-07-29T10:22:54;1.43;;;1.33;;
12110;SDS011;6119;52.372;8.990;2023-07-29T10:25:46;0.90;;;0.90;;
12110;SDS011;6119;52.372;8.990;2023-07-29T10:28:39;1.23;;;1.13;;
12110;SDS011;6119;52.372;8.990;2023-07-29T10:31:30;1.27;;;1.17;;
12110;SDS011;6119;52.372;8.990;2023-07-29T10:34:19;1.20;;;1.10;;
12110;SDS011;6119;52.372;8.990;2023-07-29T10:37:09;1.03;;;1.00;;
12110;SDS011;6119;52.372;8.990;2023-07-29T10:39:56;1.20;;;1.10;;
12110;SDS011;6119;52.372;8.990;2023-07-29T10:42:58;0.90;;;0.90;;
12110;SDS011;6119;52.372;8.990;2023-07-29T10:45:46;0.90;;;0.90;;
12110;SDS011;6119;52.372;8.990;2023-07-29T10:48:53;0.83;;;0.83;;
12110;SDS011;6119;52.372;8.990;2023-07-29T10:51:41;0.90;;;0.90;;
12110;SDS011;6119;52.372;8.990;2023-07-29T10:54:33;2.13;;;0.90;;
12110;SDS011;6119;52.372;8.990;2023-07-29T10:57:33;1.90;;;1.10;;
12110;SDS011;6119;52.372;8.990;2023-07-29T11:00:20;1.33;;;0.83;;
12110;SDS011;6119;52.372;8.990;2023-07-29T11:03:08;2.00;;;1.00;;
12110;SDS011;6119;52.372;8.990;2023-07-29T11:05:55;0.87;;;0.87;;
12110;SDS011;6119;52.372;8.990;2023-07-29T11:08:51;0.90;;;0.90;;
12110;SDS011;6119;52.372;8.990;2023-07-29T11:11:40;1.37;;;0.80;;
12110;SDS011;6119;52.372;8.990;2023-07-29T11:14:27;0.83;;;0.83;;
12110;SDS011;6119;52.372;8.990;2023-07-29T11:17:14;2.77;;;0.80;;
12110;SDS011;6119;52.372;8.990;2023-07-29T11:20:01;1.10;;;1.00;;
12110;SDS011;6119;52.372;8.990;2023-07-29T11:22:49;2.10;;;1.00;;
12110;SDS011;6119;52.372;8.990;2023-07-29T11:25:36;1.90;;;0.90;;
12110;SDS011;6119;52.372;8.990;2023-07-29T11:28:26;1.03;;;0.77;;
12110;SDS011;6119;52.372;8.990;2023-07-29T11:31:13;0.90;;;0.90;;
12110;SDS011;6119;52.372;8.990;2023-07-29T11:34:00;1.47;;;1.00;;
12110;SDS011;6119;52.372;8.990;2023-07-29T11:36:52;1.53;;;0.90;;
12110;SDS011;6119;52.372;8.990;2023-07-29T11:39:39;2.80;;;0.80;;
12110;SDS011;6119;52.372;8.990;2023-07-29T11:42:26;1.00;;;1.00;;
12110;SDS011;6119;52.372;8.990;2023-07-29T11:45:15;1.07;;;1.00;;
12110;SDS011;6119;52.372;8.990;2023-07-29T11:48:03;1.77;;;1.00;;
12110;SDS011;6119;52.372;8.990;2023-07-29T11:50:53;0.97;;;0.90;;
12110;SDS011;6119;52.372;8.990;2023-07-29T11:53:40;1.77;;;0.80;;
12110;SDS011;6119;52.372;8.990;2023-07-29T11:56:29;0.73;;;0.70;;
12110;SDS011;6119;52.372;8.990;2023-07-29T11:59:16;1.20;;;1.00;;
12110;SDS011;6119;52.372;8.990;2023-07-29T12:02:05;1.00;;;0.90;;
12110;SDS011;6119;52.372;8.990;2023-07-29T12:04:55;0.97;;;0.97;;
12110;SDS011;6119;52.372;8.990;2023-07-29T12:07:43;1.40;;;1.17;;
12110;SDS011;6119;52.372;8.990;2023-07-29T12:10:30;0.60;;;0.60;;
12110;SDS011;6119;52.372;8.990;2023-07-29T12:13:18;0.80;;;0.80;;
12110;SDS011;6119;52.372;8.990;2023-07-29T12:16:04;1.43;;;0.90;;
12110;SDS011;6119;52.372;8.990;2023-07-29T12:18:52;1.00;;;0.90;;
12110;SDS011;6119;52.372;8.990;2023-07-29T12:21:40;0.80;;;0.80;;
12110;SDS011;6119;52.372;8.990;2023-07-29T12:24:29;1.03;;;1.00;;
12110;SDS011;6119;52.372;8.990;2023-07-29T12:27:16;2.00;;;0.90;;
12110;SDS011;6119;52.372;8.990;2023-07-29T12:30:03;1.03;;;0.93;;
12110;SDS011;6119;52.372;8.990;2023-07-29T12:32:50;0.90;;;0.90;;
12110;SDS011;6119;52.372;8.990;2023-07-29T12:35:38;1.13;;;1.10;;
12110;SDS011;6119;52.372;8.990;2023-07-29T12:38:25;1.20;;;1.10;;
12110;SDS011;6119;52.372;8.990;2023-07-29T12:41:13;1.43;;;1.33;;
12110;SDS011;6119;52.372;8.990;2023-07-29T12:43:59;1.10;;;1.10;;
12110;SDS011;6119;52.372;8.990;2023-07-29T12:46:46;0.90;;;0.90;;
12110;SDS011;6119;52.372;8.990;2023-07-29T12:49:33;1.67;;;0.80;;
12110;SDS011;6119;52.372;8.990;2023-07-29T12:52:21;1.77;;;0.90;;
12110;SDS011;6119;52.372;8.990;2023-07-29T12:55:08;1.10;;;1.00;;
12110;SDS011;6119;52.372;8.990;2023-07-29T12:57:58;2.50;;;0.97;;
12110;SDS011;6119;52.372;8.990;2023-07-29T13:00:45;1.20;;;1.10;;
12110;SDS011;6119;52.372;8.990;2023-07-29T13:03:32;1.00;;;1.00;;
12110;SDS011;6119;52.372;8.990;2023-07-29T13:06:18;2.57;;;1.07;;
12110;SDS011;6119;52.372;8.990;2023-07-29T13:09:07;1.40;;;1.00;;
12110;SDS011;6119;52.372;8.990;2023-07-29T13:11:54;1.00;;;1.00;;
12110;SDS011;6119;52.372;8.990;2023-07-29T13:14:40;1.30;;;1.20;;
12110;SDS011;6119;52.372;8.990;2023-07-29T13:17:27;1.10;;;1.00;;
12110;SDS011;6119;52.372;8.990;2023-07-29T13:20:14;2.30;;;1.07;;
12110;SDS011;6119;52.372;8.990;2023-07-29T13:23:00;1.50;;;1.40;;
12110;SDS011;6119;52.372;8.990;2023-07-29T13:25:48;2.20;;;1.20;;
12110;SDS011;6119;52.372;8.990;2023-07-29T13:28:35;1.33;;;1.00;;
12110;SDS011;6119;52.372;8.990;2023-07-29T13:31:22;1.10;;;1.00;;
12110;SDS011;6119;52.372;8.990;2023-07-29T13:34:09;1.27;;;1.10;;
12110;SDS011;6119;52.372;8.990;2023-07-29T13:36:56;1.30;;;1.20;;
12110;SDS011;6119;52.372;8.990;2023-07-29T13:39:42;2.30;;;1.10;;
12110;SDS011;6119;52.372;8.990;2023-07-29T13:42:30;1.10;;;1.10;;
12110;SDS011;6119;52.372;8.990;2023-07-29T13:45:17;2.60;;;1.57;;
12110;SDS011;6119;52.372;8.990;2023-07-29T13:48:04;2.43;;;1.37;;
12110;SDS011;6119;52.372;8.990;2023-07-29T13:50:51;1.20;;;1.10;;
12110;SDS011;6119;52.372;8.990;2023-07-29T13:53:38;2.97;;;1.17;;
12110;SDS011;6119;52.372;8.990;2023-07-29T13:56:25;1.33;;;1.10;;
12110;SDS011;6119;52.372;8.990;2023-07-29T13:59:13;1.20;;;1.10;;
12110;SDS011;6119;52.372;8.990;2023-07-29T14:02:00;1.53;;;1.20;;
12110;SDS011;6119;52.372;8.990;2023-07-29T14:04:46;1.70;;;1.30;;
12110;SDS011;6119;52.372;8.990;2023-07-29T14:07:33;1.20;;;1.10;;
12110;SDS011;6119;52.372;8.990;2023-07-29T14:10:20;1.00;;;1.00;;
12110;SDS011;6119;52.372;8.990;2023-07-29T14:13:07;1.30;;;1.10;;
12110;SDS011;6119;52.372;8.990;2023-07-29T14:15:55;1.50;;;1.30;;
12110;SDS011;6119;52.372;8.990;2023-07-29T14:18:42;1.10;;;1.10;;
12110;SDS011;6119;52.372;8.990;2023-07-29T14:21:28;1.50;;;1.40;;
12110;SDS011;6119;52.372;8.990;2023-07-29T14:24:15;1.60;;;1.50;;
12110;SDS011;6119;52.372;8.990;2023-07-29T14:27:02;1.30;;;1.20;;
12110;SDS011;6119;52.372;8.990;2023-07-29T14:29:49;1.77;;;1.50;;
12110;SDS011;6119;52.372;8.990;2023-07-29T14:32:37;1.80;;;1.70;;
12110;SDS011;6119;52.372;8.990;2023-07-29T14:35:24;1.10;;;1.10;;
12110;SDS011;6119;52.372;8.990;2023-07-29T14:38:11;1.57;;;1.47;;
12110;SDS011;6119;52.372;8.990;2023-07-29T14:40:57;1.50;;;1.40;;
12110;SDS011;6119;52.372;8.990;2023-07-29T14:43:44;1.80;;;1.70;;
12110;SDS011;6119;52.372;8.990;2023-07-29T14:46:31;2.37;;;1.67;;
12110;SDS011;6119;52.372;8.990;2023-07-29T14:49:20;1.47;;;1.37;;
12110;SDS011;6119;52.372;8.990;2023-07-29T14:52:07;2.00;;;1.73;;
12110;SDS011;6119;52.372;8.990;2023-07-29T14:54:54;1.60;;;1.50;;
12110;SDS011;6119;52.372;8.990;2023-07-29T14:57:40;2.40;;;1.60;;
12110;SDS011;6119;52.372;8.990;2023-07-29T15:00:27;2.17;;;1.90;;
12110;SDS011;6119;52.372;8.990;2023-07-29T15:03:14;1.40;;;1.30;;
12110;SDS011;6119;52.372;8.990;2023-07-29T15:06:02;1.50;;;1.40;;
12110;SDS011;6119;52.372;8.990;2023-07-29T15:08:49;1.70;;;1.50;;
12110;SDS011;6119;52.372;8.990;2023-07-29T15:11:36;1.60;;;1.50;;
12110;SDS011;6119;52.372;8.990;2023-07-29T15:14:22;2.47;;;1.97;;
12110;SDS011;6119;52.372;8.990;2023-07-29T15:17:09;1.40;;;1.30;;
12110;SDS011;6119;52.372;8.990;2023-07-29T15:19:56;1.50;;;1.40;;
12110;SDS011;6119;52.372;8.990;2023-07-29T15:22:44;1.30;;;1.20;;
12110;SDS011;6119;52.372;8.990;2023-07-29T15:25:31;1.37;;;1.27;;
12110;SDS011;6119;52.372;8.990;2023-07-29T15:28:18;1.57;;;1.47;;
12110;SDS011;6119;52.372;8.990;2023-07-29T15:31:05;1.47;;;1.37;;
12110;SDS011;6119;52.372;8.990;2023-07-29T15:33:52;1.40;;;1.30;;
12110;SDS011;6119;52.372;8.990;2023-07-29T15:36:39;2.10;;;1.30;;
12110;SDS011;6119;52.372;8.990;2023-07-29T15:39:27;2.03;;;1.50;;
12110;SDS011;6119;52.372;8.990;2023-07-29T15:42:14;1.47;;;1.37;;
12110;SDS011;6119;52.372;8.990;2023-07-29T15:45:01;1.10;;;1.10;;
12110;SDS011;6119;52.372;8.990;2023-07-29T15:47:48;1.50;;;1.40;;
12110;SDS011;6119;52.372;8.990;2023-07-29T15:50:35;1.90;;;1.70;;
12110;SDS011;6119;52.372;8.990;2023-07-29T15:53:22;1.70;;;1.40;;
12110;SDS011;6119;52.372;8.990;2023-07-29T15:56:10;2.17;;;1.90;;
12110;SDS011;6119;52.372;8.990;2023-07-29T15:58:57;3.07;;;1.70;;
12110;SDS011;6119;52.372;8.990;2023-07-29T16:01:44;4.97;;;2.30;;
12110;SDS011;6119;52.372;8.990;2023-07-29T16:04:30;2.83;;;2.27;;
12110;SDS011;6119;52.372;8.990;2023-07-29T16:07:17;2.87;;;2.17;;
12110;SDS011;6119;52.372;8.990;2023-07-29T16:10:04;2.63;;;2.07;;
12110;SDS011;6119;52.372;8.990;2023-07-29T16:12:53;3.63;;;2.50;;
12110;SDS011;6119;52.372;8.990;2023-07-29T16:15:39;3.67;;;2.47;;
12110;SDS011;6119;52.372;8.990;2023-07-29T16:18:26;4.80;;;2.30;;
12110;SDS011;6119;52.372;8.990;2023-07-29T16:21:13;3.30;;;2.30;;
12110;SDS011;6119;52.372;8.990;2023-07-29T16:23:59;2.00;;;1.90;;
12110;SDS011;6119;52.372;8.990;2023-07-29T16:26:46;1.93;;;1.83;;
12110;SDS011;6119;52.372;8.990;2023-07-29T16:29:34;2.63;;;2.03;;
12110;SDS011;6119;52.372;8.990;2023-07-29T16:32:21;2.93;;;2.47;;
12110;SDS011;6119;52.372;8.990;2023-07-29T16:35:08;2.40;;;2.20;;
12110;SDS011;6119;52.372;8.990;2023-07-29T16:37:55;3.53;;;2.30;;
12110;SDS011;6119;52.372;8.990;2023-07-29T16:40:44;2.13;;;2.00;;
12110;SDS011;6119;52.372;8.990;2023-07-29T16:43:50;2.37;;;1.60;;
12110;SDS011;6119;52.372;8.990;2023-07-29T16:46:38;2.60;;;1.80;;
12110;SDS011;6119;52.372;8.990;2023-07-29T16:49:25;3.57;;;1.80;;
12110;SDS011;6119;52.372;8.990;2023-07-29T16:52:11;2.10;;;1.50;;
12110;SDS011;6119;52.372;8.990;2023-07-29T16:54:58;1.40;;;1.30;;
12110;SDS011;6119;52.372;8.990;2023-07-29T16:57:44;1.87;;;1.60;;
12110;SDS011;6119;52.372;8.990;2023-07-29T17:00:31;1.40;;;1.30;;
12110;SDS011;6119;52.372;8.990;2023-07-29T17:03:20;2.00;;;1.30;;